sensor_id;sensor_type;location;lat;lon;timestamp;temperature;humidity
16327;DHT22;34812;49.846;9.610;2023-04-24T00:00:38;10.40;99.90
16327;DHT22;34812;49.846;9.610;2023-04-24T00:01:41;10.40;99.90
16327;DHT22;34812;49.846;9.610;2023-04-24T00:02:43;10.40;99.90
16327;DHT22;34812;49.846;9.610;2023-04-24T00:03:47;10.30;99.90
16327;DHT22;34812;49.846;9.610;2023-04-24T00:04:48;10.30;99.90
16327;DHT22;34812;49.846;9.610;2023-04-24T00:05:50;10.30;99.90
16327;DHT22;34812;49.846;9.610;2023-04-24T00:06:52;10.30;99.90
16327;DHT22;34812;49.846;9.610;2023-04-24T00:07:57;10.30;99.90
16327;DHT22;34812;49.846;9.610;2023-04-24T00:08:58;10.30;99.90
16327;DHT22;34812;49.846;9.610;2023-04-24T00:10:00;10.30;99.90
16327;DHT22;34812;49.846;9.610;2023-04-24T00:11:01;10.30;99.90
16327;DHT22;34812;49.846;9.610;2023-04-24T00:12:03;10.30;99.90
16327;DHT22;34812;49.846;9.610;2023-04-24T00:13:05;10.20;99.90
16327;DHT22;34812;49.846;9.610;2023-04-24T00:14:07;10.30;99.90
16327;DHT22;34812;49.846;9.610;2023-04-24T00:15:09;10.30;99.90
16327;DHT22;34812;49.846;9.610;2023-04-24T00:16:11;10.20;99.90
16327;DHT22;34812;49.846;9.610;2023-04-24T00:17:11;10.20;99.90
16327;DHT22;34812;49.846;9.610;2023-04-24T00:18:13;10.20;99.90
16327;DHT22;34812;49.846;9.610;2023-04-24T00:19:14;10.20;99.90
16327;DHT22;34812;49.846;9.610;2023-04-24T00:20:16;10.20;99.90
16327;DHT22;34812;49.846;9.610;2023-04-24T00:21:17;10.20;99.90
16327;DHT22;34812;49.846;9.610;2023-04-24T00:22:20;10.20;99.90
16327;DHT22;34812;49.846;9.610;2023-04-24T00:23:21;10.20;99.90
16327;DHT22;34812;49.846;9.610;2023-04-24T00:24:23;10.20;99.90
16327;DHT22;34812;49.846;9.610;2023-04-24T00:25:24;10.20;99.90
16327;DHT22;34812;49.846;9.610;2023-04-24T00:26:25;10.20;99.90
16327;DHT22;34812;49.846;9.610;2023-04-24T00:27:26;10.20;99.90
16327;DHT22;34812;49.846;9.610;2023-04-24T00:28:28;10.20;99.90
16327;DHT22;34812;49.846;9.610;2023-04-24T00:29:29;10.20;99.90
16327;DHT22;34812;49.846;9.610;2023-04-24T00:30:30;10.20;99.90
16327;DHT22;34812;49.846;9.610;2023-04-24T00:31:31;10.20;99.90
16327;DHT22;34812;49.846;9.610;2023-04-24T00:32:35;10.20;99.90
16327;DHT22;34812;49.846;9.610;2023-04-24T00:33:36;10.20;99.90
16327;DHT22;34812;49.846;9.610;2023-04-24T00:34:37;10.10;99.90
16327;DHT22;34812;49.846;9.610;2023-04-24T00:35:39;10.10;99.90
16327;DHT22;34812;49.846;9.610;2023-04-24T00:36:40;10.10;99.90
16327;DHT22;34812;49.846;9.610;2023-04-24T00:37:43;10.10;99.90
16327;DHT22;34812;49.846;9.610;2023-04-24T00:38:44;10.10;99.90
16327;DHT22;34812;49.846;9.610;2023-04-24T00:39:46;10.10;99.90
16327;DHT22;34812;49.846;9.610;2023-04-24T00:40:47;10.00;99.90
16327;DHT22;34812;49.846;9.610;2023-04-24T00:41:51;10.00;99.90
16327;DHT22;34812;49.846;9.610;2023-04-24T00:42:51;10.00;99.90
16327;DHT22;34812;49.846;9.610;2023-04-24T00:43:53;10.10;99.90
16327;DHT22;34812;49.846;9.610;2023-04-24T00:44:54;10.00;99.90
16327;DHT22;34812;49.846;9.610;2023-04-24T00:45:57;10.10;99.90
16327;DHT22;34812;49.846;9.610;2023-04-24T00:47:00;10.00;99.90
16327;DHT22;34812;49.846;9.610;2023-04-24T00:48:02;10.00;99.90
16327;DHT22;34812;49.846;9.610;2023-04-24T00:49:04;10.00;99.90
16327;DHT22;34812;49.846;9.610;2023-04-24T00:50:07;10.00;99.90
16327;DHT22;34812;49.846;9.610;2023-04-24T00:51:09;10.00;99.90
16327;DHT22;34812;49.846;9.610;2023-04-24T00:52:10;10.00;99.90
16327;DHT22;34812;49.846;9.610;2023-04-24T00:53:14;10.00;99.90
16327;DHT22;34812;49.846;9.610;2023-04-24T00:54:16;10.00;99.90
16327;DHT22;34812;49.846;9.610;2023-04-24T00:55:17;10.00;99.90
16327;DHT22;34812;49.846;9.610;2023-04-24T00:56:19;10.10;99.90
16327;DHT22;34812;49.846;9.610;2023-04-24T00:57:20;10.10;99.90
16327;DHT22;34812;49.846;9.610;2023-04-24T00:58:24;10.20;99.90
16327;DHT22;34812;49.846;9.610;2023-04-24T00:59:25;10.20;99.90
16327;DHT22;34812;49.846;9.610;2023-04-24T01:00:27;10.20;99.90
16327;DHT22;34812;49.846;9.610;2023-04-24T01:01:28;10.30;99.90
16327;DHT22;34812;49.846;9.610;2023-04-24T01:02:31;10.30;99.90
16327;DHT22;34812;49.846;9.610;2023-04-24T01:03:34;10.30;99.90
16327;DHT22;34812;49.846;9.610;2023-04-24T01:04:38;10.30;99.90
16327;DHT22;34812;49.846;9.610;2023-04-24T01:05:39;10.30;99.90
16327;DHT22;34812;49.846;9.610;2023-04-24T01:06:43;10.30;99.90
16327;DHT22;34812;49.846;9.610;2023-04-24T01:07:45;10.30;99.90
16327;DHT22;34812;49.846;9.610;2023-04-24T01:08:50;10.30;99.90
16327;DHT22;34812;49.846;9.610;2023-04-24T01:09:51;10.30;99.90
16327;DHT22;34812;49.846;9.610;2023-04-24T01:10:53;10.30;99.90
16327;DHT22;34812;49.846;9.610;2023-04-24T01:11:54;10.30;99.90
16327;DHT22;34812;49.846;9.610;2023-04-24T01:12:57;10.30;99.90
16327;DHT22;34812;49.846;9.610;2023-04-24T01:13:58;10.30;99.90
16327;DHT22;34812;49.846;9.610;2023-04-24T01:15:01;10.30;99.90
16327;DHT22;34812;49.846;9.610;2023-04-24T01:16:02;10.30;99.90
16327;DHT22;34812;49.846;9.610;2023-04-24T01:17:04;10.30;99.90
16327;DHT22;34812;49.846;9.610;2023-04-24T01:18:05;10.30;99.90
16327;DHT22;34812;49.846;9.610;2023-04-24T01:19:07;10.30;99.90
16327;DHT22;34812;49.846;9.610;2023-04-24T01:20:08;10.30;99.90
16327;DHT22;34812;49.846;9.610;2023-04-24T01:21:13;10.30;99.90
16327;DHT22;34812;49.846;9.610;2023-04-24T01:22:15;10.30;99.90
16327;DHT22;34812;49.846;9.610;2023-04-24T01:23:17;10.30;99.90
16327;DHT22;34812;49.846;9.610;2023-04-24T01:24:19;10.30;99.90
16327;DHT22;34812;49.846;9.610;2023-04-24T01:25:21;10.30;99.90
16327;DHT22;34812;49.846;9.610;2023-04-24T01:26:23;10.30;99.90
16327;DHT22;34812;49.846;9.610;2023-04-24T01:27:26;10.30;99.90
16327;DHT22;34812;49.846;9.610;2023-04-24T01:28:27;10.30;99.90
16327;DHT22;34812;49.846;9.610;2023-04-24T01:29:29;10.30;99.90
16327;DHT22;34812;49.846;9.610;2023-04-24T01:30:30;10.30;99.90
16327;DHT22;34812;49.846;9.610;2023-04-24T01:31:33;10.30;99.90
16327;DHT22;34812;49.846;9.610;2023-04-24T01:32:34;10.30;99.90
16327;DHT22;34812;49.846;9.610;2023-04-24T01:33:36;10.30;99.90
16327;DHT22;34812;49.846;9.610;2023-04-24T01:34:37;10.40;99.90
16327;DHT22;34812;49.846;9.610;2023-04-24T01:35:40;10.40;99.90
16327;DHT22;34812;49.846;9.610;2023-04-24T01:36:41;10.40;99.90
16327;DHT22;34812;49.846;9.610;2023-04-24T01:37:46;10.40;99.90
16327;DHT22;34812;49.846;9.610;2023-04-24T01:38:46;10.40;99.90
16327;DHT22;34812;49.846;9.610;2023-04-24T01:39:48;10.40;99.90
16327;DHT22;34812;49.846;9.610;2023-04-24T01:40:49;10.40;99.90
16327;DHT22;34812;49.846;9.610;2023-04-24T01:41:52;10.30;99.90
16327;DHT22;34812;49.846;9.610;2023-04-24T01:42:54;10.30;99.90
16327;DHT22;34812;49.846;9.610;2023-04-24T01:43:57;10.30;99.90
16327;DHT22;34812;49.846;9.610;2023-04-24T01:44:59;10.30;99.90
16327;DHT22;34812;49.846;9.610;2023-04-24T01:46:01;10.30;99.90
16327;DHT22;34812;49.846;9.610;2023-04-24T01:47:02;10.30;99.90
16327;DHT22;34812;49.846;9.610;2023-04-24T01:48:04;10.30;99.90
16327;DHT22;34812;49.846;9.610;2023-04-24T01:49:05;10.30;99.90
16327;DHT22;34812;49.846;9.610;2023-04-24T01:50:08;10.30;99.90
16327;DHT22;34812;49.846;9.610;2023-04-24T01:51:09;10.30;99.90
16327;DHT22;34812;49.846;9.610;2023-04-24T01:52:11;10.30;99.90
16327;DHT22;34812;49.846;9.610;2023-04-24T01:53:13;10.30;99.90
16327;DHT22;34812;49.846;9.610;2023-04-24T01:54:16;10.30;99.90
16327;DHT22;34812;49.846;9.610;2023-04-24T01:55:17;10.30;99.90
16327;DHT22;34812;49.846;9.610;2023-04-24T01:56:20;10.30;99.90
16327;DHT22;34812;49.846;9.610;2023-04-24T01:57:22;10.30;99.90
16327;DHT22;34812;49.846;9.610;2023-04-24T01:58:24;10.30;99.90
16327;DHT22;34812;49.846;9.610;2023-04-24T01:59:25;10.30;99.90
16327;DHT22;34812;49.846;9.610;2023-04-24T02:00:29;10.30;99.90
16327;DHT22;34812;49.846;9.610;2023-04-24T02:01:34;10.30;99.90
16327;DHT22;34812;49.846;9.610;2023-04-24T02:02:36;10.40;99.90
16327;DHT22;34812;49.846;9.610;2023-04-24T02:03:37;10.40;99.90
16327;DHT22;34812;49.846;9.610;2023-04-24T02:04:39;10.40;99.90
16327;DHT22;34812;49.846;9.610;2023-04-24T02:05:40;10.40;99.90
16327;DHT22;34812;49.846;9.610;2023-04-24T02:06:44;10.40;99.90
16327;DHT22;34812;49.846;9.610;2023-04-24T02:07:45;10.50;99.90
16327;DHT22;34812;49.846;9.610;2023-04-24T02:08:49;10.50;99.90
16327;DHT22;34812;49.846;9.610;2023-04-24T02:09:49;10.50;99.90
16327;DHT22;34812;49.846;9.610;2023-04-24T02:10:51;10.50;99.90
16327;DHT22;34812;49.846;9.610;2023-04-24T02:11:52;10.50;99.90
16327;DHT22;34812;49.846;9.610;2023-04-24T02:12:54;10.50;99.90
16327;DHT22;34812;49.846;9.610;2023-04-24T02:13:58;10.50;99.90
16327;DHT22;34812;49.846;9.610;2023-04-24T02:15:00;10.50;99.90
16327;DHT22;34812;49.846;9.610;2023-04-24T02:16:01;10.50;99.90
16327;DHT22;34812;49.846;9.610;2023-04-24T02:17:04;10.50;99.90
16327;DHT22;34812;49.846;9.610;2023-04-24T02:18:05;10.50;99.90
16327;DHT22;34812;49.846;9.610;2023-04-24T02:19:07;10.40;99.90
16327;DHT22;34812;49.846;9.610;2023-04-24T02:20:08;10.40;99.90
16327;DHT22;34812;49.846;9.610;2023-04-24T02:21:10;10.40;99.90
16327;DHT22;34812;49.846;9.610;2023-04-24T02:22:11;10.30;99.90
16327;DHT22;34812;49.846;9.610;2023-04-24T02:23:12;10.30;99.90
16327;DHT22;34812;49.846;9.610;2023-04-24T02:24:15;10.30;99.90
16327;DHT22;34812;49.846;9.610;2023-04-24T02:25:17;10.30;99.90
16327;DHT22;34812;49.846;9.610;2023-04-24T02:26:18;10.20;99.90
16327;DHT22;34812;49.846;9.610;2023-04-24T02:27:20;10.20;99.90
16327;DHT22;34812;49.846;9.610;2023-04-24T02:28:21;10.20;99.90
16327;DHT22;34812;49.846;9.610;2023-04-24T02:29:24;10.10;99.90
16327;DHT22;34812;49.846;9.610;2023-04-24T02:30:25;10.10;99.90
16327;DHT22;34812;49.846;9.610;2023-04-24T02:31:27;10.10;99.90
16327;DHT22;34812;49.846;9.610;2023-04-24T02:32:28;10.10;99.90
16327;DHT22;34812;49.846;9.610;2023-04-24T02:33:31;10.10;99.90
16327;DHT22;34812;49.846;9.610;2023-04-24T02:34:32;10.10;99.90
16327;DHT22;34812;49.846;9.610;2023-04-24T02:35:34;10.10;99.90
16327;DHT22;34812;49.846;9.610;2023-04-24T02:36:35;10.10;99.90
16327;DHT22;34812;49.846;9.610;2023-04-24T02:37:36;10.10;99.90
16327;DHT22;34812;49.846;9.610;2023-04-24T02:38:37;10.10;99.90
16327;DHT22;34812;49.846;9.610;2023-04-24T02:39:41;10.10;99.90
16327;DHT22;34812;49.846;9.610;2023-04-24T02:40:42;10.20;99.90
16327;DHT22;34812;49.846;9.610;2023-04-24T02:41:44;10.20;99.90
16327;DHT22;34812;49.846;9.610;2023-04-24T02:42:45;10.20;99.90
16327;DHT22;34812;49.846;9.610;2023-04-24T02:43:46;10.20;99.90
16327;DHT22;34812;49.846;9.610;2023-04-24T02:44:47;10.20;99.90
16327;DHT22;34812;49.846;9.610;2023-04-24T02:45:51;10.30;99.90
16327;DHT22;34812;49.846;9.610;2023-04-24T02:46:52;10.30;99.90
16327;DHT22;34812;49.846;9.610;2023-04-24T02:47:53;10.30;99.90
16327;DHT22;34812;49.846;9.610;2023-04-24T02:48:54;10.30;99.90
16327;DHT22;34812;49.846;9.610;2023-04-24T02:49:56;10.30;99.90
16327;DHT22;34812;49.846;9.610;2023-04-24T02:50:57;10.40;99.90
16327;DHT22;34812;49.846;9.610;2023-04-24T02:51:59;10.40;99.90
16327;DHT22;34812;49.846;9.610;2023-04-24T02:52:59;10.40;99.90
16327;DHT22;34812;49.846;9.610;2023-04-24T02:54:01;10.40;99.90
16327;DHT22;34812;49.846;9.610;2023-04-24T02:55:04;10.40;99.90
16327;DHT22;34812;49.846;9.610;2023-04-24T02:56:06;10.40;99.90
16327;DHT22;34812;49.846;9.610;2023-04-24T02:57:07;10.40;99.90
16327;DHT22;34812;49.846;9.610;2023-04-24T02:58:09;10.40;99.90
16327;DHT22;34812;49.846;9.610;2023-04-24T02:59:11;10.40;99.90
16327;DHT22;34812;49.846;9.610;2023-04-24T03:00:13;10.40;99.90
16327;DHT22;34812;49.846;9.610;2023-04-24T03:01:14;10.40;99.90
16327;DHT22;34812;49.846;9.610;2023-04-24T03:02:16;10.40;99.90
16327;DHT22;34812;49.846;9.610;2023-04-24T03:03:16;10.40;99.90
16327;DHT22;34812;49.846;9.610;2023-04-24T03:04:18;10.40;99.90
16327;DHT22;34812;49.846;9.610;2023-04-24T03:05:20;10.40;99.90
16327;DHT22;34812;49.846;9.610;2023-04-24T03:06:22;10.30;99.90
16327;DHT22;34812;49.846;9.610;2023-04-24T03:07:23;10.30;99.90
16327;DHT22;34812;49.846;9.610;2023-04-24T03:08:25;10.30;99.90
16327;DHT22;34812;49.846;9.610;2023-04-24T03:09:25;10.30;99.90
16327;DHT22;34812;49.846;9.610;2023-04-24T03:10:29;10.30;99.90
16327;DHT22;34812;49.846;9.610;2023-04-24T03:11:29;10.40;99.90
16327;DHT22;34812;49.846;9.610;2023-04-24T03:12:31;10.40;99.90
16327;DHT22;34812;49.846;9.610;2023-04-24T03:13:32;10.40;99.90
16327;DHT22;34812;49.846;9.610;2023-04-24T03:14:34;10.40;99.90
16327;DHT22;34812;49.846;9.610;2023-04-24T03:15:35;10.40;99.90
16327;DHT22;34812;49.846;9.610;2023-04-24T03:16:37;10.40;99.90
16327;DHT22;34812;49.846;9.610;2023-04-24T03:17:37;10.40;99.90
16327;DHT22;34812;49.846;9.610;2023-04-24T03:18:39;10.40;99.90
16327;DHT22;34812;49.846;9.610;2023-04-24T03:19:41;10.30;99.90
16327;DHT22;34812;49.846;9.610;2023-04-24T03:20:45;10.30;99.90
16327;DHT22;34812;49.846;9.610;2023-04-24T03:21:47;10.30;99.90
16327;DHT22;34812;49.846;9.610;2023-04-24T03:22:49;10.30;99.90
16327;DHT22;34812;49.846;9.610;2023-04-24T03:23:51;10.30;99.90
16327;DHT22;34812;49.846;9.610;2023-04-24T03:24:53;10.30;99.90
16327;DHT22;34812;49.846;9.610;2023-04-24T03:25:56;10.30;99.90
16327;DHT22;34812;49.846;9.610;2023-04-24T03:26:59;10.30;99.90
16327;DHT22;34812;49.846;9.610;2023-04-24T03:28:20;10.30;99.90
16327;DHT22;34812;49.846;9.610;2023-04-24T03:29:34;10.30;99.90
16327;DHT22;34812;49.846;9.610;2023-04-24T03:30:35;10.40;99.90
16327;DHT22;34812;49.846;9.610;2023-04-24T03:31:38;10.30;99.90
16327;DHT22;34812;49.846;9.610;2023-04-24T03:32:39;10.30;99.90
16327;DHT22;34812;49.846;9.610;2023-04-24T03:33:42;10.30;99.90
16327;DHT22;34812;49.846;9.610;2023-04-24T03:34:43;10.30;99.90
16327;DHT22;34812;49.846;9.610;2023-04-24T03:35:47;10.30;99.90
16327;DHT22;34812;49.846;9.610;2023-04-24T03:36:47;10.30;99.90
16327;DHT22;34812;49.846;9.610;2023-04-24T03:37:49;10.30;99.90
16327;DHT22;34812;49.846;9.610;2023-04-24T03:39:19;10.30;99.90
16327;DHT22;34812;49.846;9.610;2023-04-24T03:40:27;10.20;99.90
16327;DHT22;34812;49.846;9.610;2023-04-24T03:41:31;10.20;99.90
16327;DHT22;34812;49.846;9.610;2023-04-24T03:42:43;10.20;99.90
16327;DHT22;34812;49.846;9.610;2023-04-24T03:43:43;10.20;99.90
16327;DHT22;34812;49.846;9.610;2023-04-24T03:44:45;10.20;99.90
16327;DHT22;34812;49.846;9.610;2023-04-24T03:45:46;10.20;99.90
16327;DHT22;34812;49.846;9.610;2023-04-24T03:46:49;10.20;99.90
16327;DHT22;34812;49.846;9.610;2023-04-24T03:47:50;10.20;99.90
16327;DHT22;34812;49.846;9.610;2023-04-24T03:48:52;10.20;99.90
16327;DHT22;34812;49.846;9.610;2023-04-24T03:49:55;10.20;99.90
16327;DHT22;34812;49.846;9.610;2023-04-24T03:50:57;10.20;99.90
16327;DHT22;34812;49.846;9.610;2023-04-24T03:51:58;10.20;99.90
16327;DHT22;34812;49.846;9.610;2023-04-24T03:53:01;10.20;99.90
16327;DHT22;34812;49.846;9.610;2023-04-24T03:54:14;10.20;99.90
16327;DHT22;34812;49.846;9.610;2023-04-24T03:55:16;10.20;99.90
16327;DHT22;34812;49.846;9.610;2023-04-24T03:56:20;10.20;99.90
16327;DHT22;34812;49.846;9.610;2023-04-24T03:57:23;10.20;99.90
16327;DHT22;34812;49.846;9.610;2023-04-24T03:58:37;10.30;99.90
16327;DHT22;34812;49.846;9.610;2023-04-24T03:59:39;10.30;99.90
16327;DHT22;34812;49.846;9.610;2023-04-24T04:00:46;10.30;99.90
16327;DHT22;34812;49.846;9.610;2023-04-24T04:02:11;10.30;99.90
16327;DHT22;34812;49.846;9.610;2023-04-24T04:03:13;10.30;99.90
16327;DHT22;34812;49.846;9.610;2023-04-24T04:04:14;10.30;99.90
16327;DHT22;34812;49.846;9.610;2023-04-24T04:05:17;10.30;99.90
16327;DHT22;34812;49.846;9.610;2023-04-24T04:06:18;10.30;99.90
16327;DHT22;34812;49.846;9.610;2023-04-24T04:07:22;10.30;99.90
16327;DHT22;34812;49.846;9.610;2023-04-24T04:08:23;10.30;99.90
16327;DHT22;34812;49.846;9.610;2023-04-24T04:09:25;10.30;99.90
16327;DHT22;34812;49.846;9.610;2023-04-24T04:10:26;10.20;99.90
16327;DHT22;34812;49.846;9.610;2023-04-24T04:11:28;10.20;99.90
16327;DHT22;34812;49.846;9.610;2023-04-24T04:12:30;10.20;99.90
16327;DHT22;34812;49.846;9.610;2023-04-24T04:13:32;10.20;99.90
16327;DHT22;34812;49.846;9.610;2023-04-24T04:14:33;10.20;99.90
16327;DHT22;34812;49.846;9.610;2023-04-24T04:15:35;10.20;99.90
16327;DHT22;34812;49.846;9.610;2023-04-24T04:16:36;10.20;99.90
16327;DHT22;34812;49.846;9.610;2023-04-24T04:17:39;10.20;99.90
16327;DHT22;34812;49.846;9.610;2023-04-24T04:18:41;10.20;99.90
16327;DHT22;34812;49.846;9.610;2023-04-24T04:19:43;10.20;99.90
16327;DHT22;34812;49.846;9.610;2023-04-24T04:20:44;10.10;99.90
16327;DHT22;34812;49.846;9.610;2023-04-24T04:21:48;10.10;99.90
16327;DHT22;34812;49.846;9.610;2023-04-24T04:23:00;10.10;99.90
16327;DHT22;34812;49.846;9.610;2023-04-24T04:24:14;10.10;99.90
16327;DHT22;34812;49.846;9.610;2023-04-24T04:25:19;10.10;99.90
16327;DHT22;34812;49.846;9.610;2023-04-24T04:26:20;10.10;99.90
16327;DHT22;34812;49.846;9.610;2023-04-24T04:27:40;10.00;99.90
16327;DHT22;34812;49.846;9.610;2023-04-24T04:28:44;10.00;99.90
16327;DHT22;34812;49.846;9.610;2023-04-24T04:29:46;10.00;99.90
16327;DHT22;34812;49.846;9.610;2023-04-24T04:30:50;10.00;99.90
16327;DHT22;34812;49.846;9.610;2023-04-24T04:31:54;10.00;99.90
16327;DHT22;34812;49.846;9.610;2023-04-24T04:32:56;10.00;99.90
16327;DHT22;34812;49.846;9.610;2023-04-24T04:33:57;10.10;99.90
16327;DHT22;34812;49.846;9.610;2023-04-24T04:35:00;10.10;99.90
16327;DHT22;34812;49.846;9.610;2023-04-24T04:36:04;10.10;99.90
16327;DHT22;34812;49.846;9.610;2023-04-24T04:37:06;10.10;99.90
16327;DHT22;34812;49.846;9.610;2023-04-24T04:38:19;10.10;99.90
16327;DHT22;34812;49.846;9.610;2023-04-24T04:39:32;10.10;99.90
16327;DHT22;34812;49.846;9.610;2023-04-24T04:40:36;10.20;99.90
16327;DHT22;34812;49.846;9.610;2023-04-24T04:41:39;10.20;99.90
16327;DHT22;34812;49.846;9.610;2023-04-24T04:42:45;10.20;99.90
16327;DHT22;34812;49.846;9.610;2023-04-24T04:43:48;10.20;99.90
16327;DHT22;34812;49.846;9.610;2023-04-24T04:44:55;10.20;99.90
16327;DHT22;34812;49.846;9.610;2023-04-24T04:46:04;10.20;99.90
16327;DHT22;34812;49.846;9.610;2023-04-24T04:47:21;10.10;99.90
16327;DHT22;34812;49.846;9.610;2023-04-24T04:48:23;10.20;99.90
16327;DHT22;34812;49.846;9.610;2023-04-24T04:49:24;10.10;99.90
16327;DHT22;34812;49.846;9.610;2023-04-24T04:50:28;10.10;99.90
16327;DHT22;34812;49.846;9.610;2023-04-24T04:51:36;10.10;99.90
16327;DHT22;34812;49.846;9.610;2023-04-24T04:52:37;10.10;99.90
16327;DHT22;34812;49.846;9.610;2023-04-24T04:53:49;10.10;99.90
16327;DHT22;34812;49.846;9.610;2023-04-24T04:54:50;10.10;99.90
16327;DHT22;34812;49.846;9.610;2023-04-24T04:55:52;10.10;99.90
16327;DHT22;34812;49.846;9.610;2023-04-24T04:56:54;10.10;99.90
16327;DHT22;34812;49.846;9.610;2023-04-24T04:57:59;10.10;99.90
16327;DHT22;34812;49.846;9.610;2023-04-24T04:59:01;10.10;99.90
16327;DHT22;34812;49.846;9.610;2023-04-24T05:00:03;10.10;99.90
16327;DHT22;34812;49.846;9.610;2023-04-24T05:01:15;10.10;99.90
16327;DHT22;34812;49.846;9.610;2023-04-24T05:02:20;10.10;99.90
16327;DHT22;34812;49.846;9.610;2023-04-24T05:03:21;10.10;99.90
16327;DHT22;34812;49.846;9.610;2023-04-24T05:04:30;10.10;99.90
16327;DHT22;34812;49.846;9.610;2023-04-24T05:05:31;10.10;99.90
16327;DHT22;34812;49.846;9.610;2023-04-24T05:06:32;10.10;99.90
16327;DHT22;34812;49.846;9.610;2023-04-24T05:07:33;10.10;99.90
16327;DHT22;34812;49.846;9.610;2023-04-24T05:08:35;10.00;99.90
16327;DHT22;34812;49.846;9.610;2023-04-24T05:09:38;10.00;99.90
16327;DHT22;34812;49.846;9.610;2023-04-24T05:10:41;10.00;99.90
16327;DHT22;34812;49.846;9.610;2023-04-24T05:11:42;10.00;99.90
16327;DHT22;34812;49.846;9.610;2023-04-24T05:12:44;10.00;99.90
16327;DHT22;34812;49.846;9.610;2023-04-24T05:13:47;10.00;99.90
16327;DHT22;34812;49.846;9.610;2023-04-24T05:14:53;10.00;99.90
16327;DHT22;34812;49.846;9.610;2023-04-24T05:15:55;10.00;99.90
16327;DHT22;34812;49.846;9.610;2023-04-24T05:16:57;10.00;99.90
16327;DHT22;34812;49.846;9.610;2023-04-24T05:18:00;10.00;99.90
16327;DHT22;34812;49.846;9.610;2023-04-24T05:19:02;10.00;99.90
16327;DHT22;34812;49.846;9.610;2023-04-24T05:20:09;10.00;99.90
16327;DHT22;34812;49.846;9.610;2023-04-24T05:21:11;10.00;99.90
16327;DHT22;34812;49.846;9.610;2023-04-24T05:22:14;10.00;99.90
16327;DHT22;34812;49.846;9.610;2023-04-24T05:23:23;10.00;99.90
16327;DHT22;34812;49.846;9.610;2023-04-24T05:24:27;10.00;99.90
16327;DHT22;34812;49.846;9.610;2023-04-24T05:25:47;10.00;99.90
16327;DHT22;34812;49.846;9.610;2023-04-24T05:26:49;10.00;99.90
16327;DHT22;34812;49.846;9.610;2023-04-24T05:27:54;10.00;99.90
16327;DHT22;34812;49.846;9.610;2023-04-24T05:28:58;10.00;99.90
16327;DHT22;34812;49.846;9.610;2023-04-24T05:29:59;10.00;99.90
16327;DHT22;34812;49.846;9.610;2023-04-24T05:31:01;9.90;99.90
16327;DHT22;34812;49.846;9.610;2023-04-24T05:32:03;9.90;99.90
16327;DHT22;34812;49.846;9.610;2023-04-24T05:33:05;9.90;99.90
16327;DHT22;34812;49.846;9.610;2023-04-24T05:34:09;9.90;99.90
16327;DHT22;34812;49.846;9.610;2023-04-24T05:35:14;9.80;99.90
16327;DHT22;34812;49.846;9.610;2023-04-24T05:36:15;9.80;99.90
16327;DHT22;34812;49.846;9.610;2023-04-24T05:37:17;9.80;99.90
16327;DHT22;34812;49.846;9.610;2023-04-24T05:38:18;9.80;99.90
16327;DHT22;34812;49.846;9.610;2023-04-24T05:39:20;9.80;99.90
16327;DHT22;34812;49.846;9.610;2023-04-24T05:40:21;9.80;99.90
16327;DHT22;34812;49.846;9.610;2023-04-24T05:41:22;9.70;99.90
16327;DHT22;34812;49.846;9.610;2023-04-24T05:42:23;9.70;99.90
16327;DHT22;34812;49.846;9.610;2023-04-24T05:43:25;9.70;99.90
16327;DHT22;34812;49.846;9.610;2023-04-24T05:44:27;9.70;99.90
16327;DHT22;34812;49.846;9.610;2023-04-24T05:45:29;9.70;99.90
16327;DHT22;34812;49.846;9.610;2023-04-24T05:46:30;9.70;99.90
16327;DHT22;34812;49.846;9.610;2023-04-24T05:47:32;9.70;99.90
16327;DHT22;34812;49.846;9.610;2023-04-24T05:48:34;9.80;99.90
16327;DHT22;34812;49.846;9.610;2023-04-24T05:49:37;9.80;99.90
16327;DHT22;34812;49.846;9.610;2023-04-24T05:50:38;9.80;99.90
16327;DHT22;34812;49.846;9.610;2023-04-24T05:51:40;9.80;99.90
16327;DHT22;34812;49.846;9.610;2023-04-24T05:52:42;9.80;99.90
16327;DHT22;34812;49.846;9.610;2023-04-24T05:53:56;9.80;99.90
16327;DHT22;34812;49.846;9.610;2023-04-24T05:54:59;9.80;99.90
16327;DHT22;34812;49.846;9.610;2023-04-24T05:56:05;9.80;99.90
16327;DHT22;34812;49.846;9.610;2023-04-24T05:57:07;9.80;99.90
16327;DHT22;34812;49.846;9.610;2023-04-24T05:58:23;9.80;99.90
16327;DHT22;34812;49.846;9.610;2023-04-24T05:59:26;9.90;99.90
16327;DHT22;34812;49.846;9.610;2023-04-24T06:00:28;9.90;99.90
16327;DHT22;34812;49.846;9.610;2023-04-24T06:01:36;9.90;99.90
16327;DHT22;34812;49.846;9.610;2023-04-24T06:02:48;9.90;99.90
16327;DHT22;34812;49.846;9.610;2023-04-24T06:03:49;9.90;99.90
16327;DHT22;34812;49.846;9.610;2023-04-24T06:04:50;9.90;99.90
16327;DHT22;34812;49.846;9.610;2023-04-24T06:05:52;9.90;99.90
16327;DHT22;34812;49.846;9.610;2023-04-24T06:06:56;9.90;99.90
16327;DHT22;34812;49.846;9.610;2023-04-24T06:07:58;9.90;99.90
16327;DHT22;34812;49.846;9.610;2023-04-24T06:09:06;10.00;99.90
16327;DHT22;34812;49.846;9.610;2023-04-24T06:10:08;10.00;99.90
16327;DHT22;34812;49.846;9.610;2023-04-24T06:11:15;10.00;99.90
16327;DHT22;34812;49.846;9.610;2023-04-24T06:12:16;10.00;99.90
16327;DHT22;34812;49.846;9.610;2023-04-24T06:13:44;10.10;99.90
16327;DHT22;34812;49.846;9.610;2023-04-24T06:15:07;10.10;99.90
16327;DHT22;34812;49.846;9.610;2023-04-24T06:16:30;10.20;99.90
16327;DHT22;34812;49.846;9.610;2023-04-24T06:17:37;10.20;99.90
16327;DHT22;34812;49.846;9.610;2023-04-24T06:18:38;10.20;99.90
16327;DHT22;34812;49.846;9.610;2023-04-24T06:19:40;10.20;99.90
16327;DHT22;34812;49.846;9.610;2023-04-24T06:20:41;10.20;99.90
16327;DHT22;34812;49.846;9.610;2023-04-24T06:21:44;10.20;99.90
16327;DHT22;34812;49.846;9.610;2023-04-24T06:22:45;10.20;99.90
16327;DHT22;34812;49.846;9.610;2023-04-24T06:23:47;10.20;99.90
16327;DHT22;34812;49.846;9.610;2023-04-24T06:24:49;10.30;99.90
16327;DHT22;34812;49.846;9.610;2023-04-24T06:25:52;10.30;99.90
16327;DHT22;34812;49.846;9.610;2023-04-24T06:26:52;10.30;99.90
16327;DHT22;34812;49.846;9.610;2023-04-24T06:27:54;10.40;99.90
16327;DHT22;34812;49.846;9.610;2023-04-24T06:28:56;10.40;99.90
16327;DHT22;34812;49.846;9.610;2023-04-24T06:29:59;10.40;99.90
16327;DHT22;34812;49.846;9.610;2023-04-24T06:31:02;10.50;99.90
16327;DHT22;34812;49.846;9.610;2023-04-24T06:32:04;10.50;99.90
16327;DHT22;34812;49.846;9.610;2023-04-24T06:33:06;10.50;99.90
16327;DHT22;34812;49.846;9.610;2023-04-24T06:34:08;10.50;99.90
16327;DHT22;34812;49.846;9.610;2023-04-24T06:35:09;10.60;99.90
16327;DHT22;34812;49.846;9.610;2023-04-24T06:36:12;10.60;99.90
16327;DHT22;34812;49.846;9.610;2023-04-24T06:37:14;10.60;99.90
16327;DHT22;34812;49.846;9.610;2023-04-24T06:38:16;10.70;99.90
16327;DHT22;34812;49.846;9.610;2023-04-24T06:39:18;10.70;99.90